RKSS/GMP METAR and TAF weather

Enter ICAO airport designator
Station Type Date Time Source
RKSS METAR 2019/04/19 10:00 UTC NOAA

RKSS 191000Z 13005KT 100V160 CAVOK 17/05 Q1014 NOSIG


Station Type Date Time Source
RKSS Decoded METAR 2019/04/19 10:00 UTC NOAA

Seoul / Kimp'O International Airport, Korea, South (RKSS) 37-33N 126-48E 18M
Apr 19, 2019 - 06:00 AM EDT / 2019.04.19 1000 UTC
Wind: from the SE (130 degrees) at 6 MPH (5 KT) (direction variable):0
Visibility: greater than 7 mile(s):0
Temperature: 62 F (17 C)
Dew Point: 41 F (5 C)
Relative Humidity: 45%
Pressure (altimeter): 29.94 in. Hg (1014 hPa)
ob: RKSS 191000Z 13005KT 100V160 CAVOK 17/05 Q1014 NOSIG
cycle: 10

Station Type Date Time Source
RKSS TAF 2019/04/19 06:09 UTC NOAA

TAF RKSS 190500Z 1906/2012 08008KT 9999 FEW030 TN05/1920Z TX21/2006Z
BECMG 1911/1912 02005KT 6000 NSC
BECMG 1914/1915 16005KT FEW010 SCT030
BECMG 1919/1920 FEW010 BKN025
BECMG 1923/1924 SCT030
BECMG 2003/2004 26007KT

Example: see airport list